Time;durP1;ratioP1;P1;durP2;ratioP2;P2;SDS_P1;SDS_P2;PMS_P1;PMS_P2;Temp;Humidity;BMP_temperature;BMP_pressure;BME280_temperature;BME280_humidity;BME280_pressure;Samples;Min_cycle;Max_cycle;Signal;HPM_P1;HPM_P2
2022/01/21 00:01:15;;;;;;;14.20;7.78;;;;;;;3.51;48.19;94579.50;5096762;28;20027;-82
2022/01/21 00:03:40;;;;;;;16.55;9.95;;;;;;;3.50;47.29;94588.13;5096461;28;20066;-82
2022/01/21 00:06:06;;;;;;;17.33;8.70;;;;;;;3.61;47.79;94608.06;5079708;28;20458;-82
2022/01/21 00:08:33;;;;;;;16.58;8.63;;;;;;;3.54;47.16;94613.56;5096760;28;20107;-82
2022/01/21 00:10:59;;;;;;;16.60;9.60;;;;;;;3.62;47.54;94622.53;5096484;28;20467;-81
2022/01/21 00:13:33;;;;;;;14.65;7.50;;;;;;;3.28;47.23;94609.09;5096529;28;20107;-82
2022/01/21 00:16:13;;;;;;;12.25;6.95;;;;;;;3.40;46.79;94628.09;5098863;27;20050;-81
2022/01/21 00:18:40;;;;;;;12.18;6.03;;;;;;;3.22;47.65;94623.13;5096528;28;20434;-81
2022/01/21 00:32:03;;;;;;;17.13;6.28;;;;;;;3.24;47.50;94648.72;5113504;28;20108;-82
2022/01/21 00:34:28;;;;;;;11.38;5.68;;;;;;;3.25;46.58;94637.50;5114656;27;20486;-82
2022/01/21 00:36:54;;;;;;;14.13;6.30;;;;;;;3.21;47.28;94646.31;5095189;28;20023;-82
2022/01/21 00:39:23;;;;;;;12.40;6.15;;;;;;;3.31;47.21;94663.66;5095763;28;20123;-81
2022/01/21 00:44:23;;;;;;;11.07;6.50;;;;;;;3.30;47.50;94638.91;5113225;28;20027;-82
2022/01/21 00:46:49;;;;;;;16.05;7.50;;;;;;;3.00;48.66;94633.75;5095906;28;20035;-82
2022/01/21 00:49:15;;;;;;;18.70;8.02;;;;;;;3.17;47.78;94680.75;5095746;28;20059;-81
2022/01/21 00:51:40;;;;;;;21.73;9.10;;;;;;;3.17;47.62;94663.63;5095800;28;20649;-81
2022/01/21 00:54:06;;;;;;;16.95;7.82;;;;;;;3.01;48.81;94635.44;5095743;28;20023;-82
2022/01/21 00:56:31;;;;;;;15.00;7.00;;;;;;;2.98;48.30;94651.00;5095617;28;20081;-82
2022/01/21 00:58:57;;;;;;;17.25;7.07;;;;;;;2.99;48.36;94652.66;5095621;28;20031;-82
2022/01/21 01:01:22;;;;;;;14.55;6.85;;;;;;;3.04;47.72;94640.38;5095628;28;20024;-82
2022/01/21 01:03:48;;;;;;;16.52;6.88;;;;;;;3.05;48.04;94672.84;5113880;28;20492;-81
2022/01/21 01:06:13;;;;;;;12.63;7.32;;;;;;;3.23;48.05;94680.41;5095467;28;20032;-81
2022/01/21 01:08:38;;;;;;;18.73;6.80;;;;;;;3.04;47.73;94640.38;5112684;28;20191;-81
2022/01/21 01:21:58;;;;;;;15.52;7.13;;;;;;;3.19;49.87;94659.22;5056255;28;20044;-82
2022/01/21 01:29:51;;;;;;;11.88;6.15;;;;;;;2.83;56.19;94662.94;5112139;28;20312;-81
2022/01/21 01:32:17;;;;;;;10.65;5.93;;;;;;;2.65;57.89;94672.47;5111847;28;20481;-81
2022/01/21 01:34:42;;;;;;;11.68;5.63;;;;;;;2.65;59.66;94676.78;5111836;28;20032;-81
2022/01/21 01:37:16;;;;;;;11.80;5.80;;;;;;;2.50;61.21;94662.19;5094650;28;20043;-82
2022/01/21 01:39:45;;;;;;;9.93;5.50;;;;;;;2.35;63.38;94669.78;5096088;28;20054;-81
2022/01/21 01:50:36;;;;;;;17.85;8.48;;;;;;;2.08;66.49;94656.69;5097346;28;20062;-81
2022/01/21 01:53:02;;;;;;;20.33;8.55;;;;;;;2.20;66.62;94653.50;5112956;28;20023;-82
2022/01/21 01:55:27;;;;;;;11.50;6.93;;;;;;;2.03;68.59;94663.78;5094414;28;20031;-81
2022/01/21 01:57:53;;;;;;;13.98;6.13;;;;;;;1.78;69.67;94654.81;5111424;28;20076;-80
2022/01/21 02:00:18;;;;;;;11.45;5.97;;;;;;;1.79;71.13;94663.31;5094142;28;20028;-81
2022/01/21 02:02:44;;;;;;;14.43;6.03;;;;;;;1.68;71.71;94658.75;5112385;28;20382;-80
2022/01/21 02:05:09;;;;;;;12.88;6.38;;;;;;;1.76;72.21;94668.59;5094250;28;20027;-80
2022/01/21 02:07:35;;;;;;;12.25;6.70;;;;;;;1.64;72.31;94659.78;5110977;28;20035;-80
2022/01/21 02:10:00;;;;;;;12.18;6.93;;;;;;;1.63;73.07;94665.81;5093996;28;20108;-81
2022/01/21 02:12:26;;;;;;;29.92;9.68;;;;;;;1.75;72.33;94660.06;5094111;28;20421;-80
2022/01/21 02:14:53;;;;;;;29.75;13.65;;;;;;;1.79;72.18;94651.34;5093913;28;20039;-80
2022/01/21 02:22:44;;;;;;;17.85;8.90;;;;;;;2.09;71.53;94666.03;5111247;28;20140;-80
2022/01/21 02:25:18;;;;;;;16.10;8.50;;;;;;;2.13;71.61;94672.66;5094448;28;20035;-80
2022/01/21 02:27:45;;;;;;;14.68;8.35;;;;;;;2.24;71.19;94660.09;5112269;28;20031;-80
2022/01/21 02:30:18;;;;;;;16.60;8.80;;;;;;;2.19;71.38;94669.75;5093723;28;20425;-79
2022/01/21 02:32:51;;;;;;;15.50;8.95;;;;;;;2.19;70.62;94649.25;5095809;27;20119;-80
2022/01/21 02:35:17;;;;;;;17.95;9.77;;;;;;;2.09;71.61;94655.78;5110850;28;20024;-79
2022/01/21 02:37:42;;;;;;;12.55;9.07;;;;;;;2.15;72.26;94680.28;5093734;28;20108;-79
2022/01/21 02:40:08;;;;;;;18.50;10.20;;;;;;;2.00;73.18;94680.13;5110721;28;20066;-79
2022/01/21 02:42:34;;;;;;;16.05;11.10;;;;;;;2.09;72.27;94693.38;5093512;28;20104;-78
2022/01/21 02:44:59;;;;;;;15.02;9.52;;;;;;;2.07;72.70;94693.47;5093663;28;20027;-78
2022/01/21 02:47:25;;;;;;;21.80;11.25;;;;;;;2.18;71.48;94691.19;5110724;28;20020;-78
2022/01/21 02:49:50;;;;;;;21.05;11.27;;;;;;;2.15;71.65;94699.03;5093462;28;20116;-78
2022/01/21 02:52:18;;;;;;;47.40;19.67;;;;;;;2.03;72.33;94696.25;5093442;28;20019;-78
2022/01/21 02:54:44;;;;;;;41.38;20.40;;;;;;;2.05;71.96;94709.84;5110609;28;20451;-78
2022/01/21 02:57:09;;;;;;;32.95;16.55;;;;;;;1.93;72.28;94701.03;5110552;28;20084;-78
2022/01/21 02:59:35;;;;;;;30.35;17.60;;;;;;;2.03;72.25;94712.47;5110442;27;20061;-78
2022/01/21 03:02:01;;;;;;;26.80;14.32;;;;;;;1.99;71.96;94706.69;5109785;28;20520;-78
2022/01/21 03:04:36;;;;;;;22.65;12.93;;;;;;;1.95;72.69;94712.88;5093645;28;20059;-78
2022/01/21 03:07:01;;;;;;;27.27;13.80;;;;;;;1.87;73.50;94716.72;5111492;28;20035;-78
2022/01/21 03:09:27;;;;;;;22.77;13.32;;;;;;;1.70;73.15;94700.47;5093442;28;20032;-78
2022/01/21 03:11:52;;;;;;;20.35;11.95;;;;;;;1.60;74.41;94708.69;5093322;28;20043;-78
2022/01/21 03:14:18;;;;;;;10.95;6.72;;;;;;;1.65;74.21;94717.78;5110962;28;20280;-78
2022/01/21 03:16:43;;;;;;;8.85;5.72;;;;;;;1.65;73.97;94706.72;5076579;28;20028;-78
2022/01/21 03:19:09;;;;;;;7.38;4.47;;;;;;;1.63;73.97;94704.22;5093722;28;20042;-78
2022/01/21 03:21:36;;;;;;;5.65;4.38;;;;;;;1.62;74.07;94706.88;5110318;28;20024;-78
2022/01/21 03:24:01;;;;;;;5.00;3.60;;;;;;;1.45;74.55;94697.44;5110450;28;20031;-78
2022/01/21 03:26:27;;;;;;;6.50;3.55;;;;;;;1.53;74.41;94703.03;5093365;28;20027;-78
2022/01/21 03:28:55;;;;;;;5.90;3.22;;;;;;;1.51;74.42;94709.97;5093332;28;20035;-78
2022/01/21 03:31:20;;;;;;;5.63;4.47;;;;;;;1.41;75.03;94693.38;5093377;28;20416;-77
2022/01/21 03:33:46;;;;;;;5.25;3.50;;;;;;;1.47;74.85;94705.88;5110483;28;20028;-78
2022/01/21 03:36:11;;;;;;;4.15;2.55;;;;;;;1.47;74.66;94706.72;5093471;28;20123;-78
2022/01/21 03:38:37;;;;;;;4.20;2.83;;;;;;;1.47;74.64;94716.13;5093586;28;20035;-78
2022/01/21 03:41:03;;;;;;;6.28;3.35;;;;;;;1.34;74.91;94709.06;5093189;28;20032;-78
2022/01/21 03:43:28;;;;;;;7.05;4.68;;;;;;;1.40;74.90;94719.91;5076839;28;20261;-78
2022/01/21 03:45:54;;;;;;;4.60;3.30;;;;;;;1.38;74.53;94724.25;5110441;28;20132;-79
2022/01/21 03:48:19;;;;;;;3.10;2.00;;;;;;;1.38;74.53;94729.38;5111825;28;20028;-78
2022/01/21 03:50:45;;;;;;;3.65;2.10;;;;;;;1.28;74.97;94731.53;5092858;28;20051;-78
2022/01/21 03:53:10;;;;;;;2.90;1.80;;;;;;;1.31;75.10;94736.53;5076589;28;20127;-79
2022/01/21 03:55:36;;;;;;;2.53;1.65;;;;;;;1.12;75.45;94713.56;5110278;28;20119;-79
2022/01/21 03:58:05;;;;;;;2.97;2.10;;;;;;;1.18;76.38;94730.34;5110028;28;20031;-78
2022/01/21 04:00:36;;;;;;;4.53;2.42;;;;;;;1.22;75.88;94735.22;5109923;28;20093;-79
2022/01/21 04:03:03;;;;;;;3.72;2.38;;;;;;;1.18;75.51;94743.13;5110202;28;20096;-79
2022/01/21 04:05:28;;;;;;;3.97;2.47;;;;;;;1.19;75.44;94737.94;5093382;28;20031;-79
2022/01/21 04:07:54;;;;;;;3.08;1.83;;;;;;;1.14;75.61;94736.50;5093268;28;20405;-79
2022/01/21 04:10:19;;;;;;;2.70;1.63;;;;;;;1.12;75.79;94734.03;5111020;28;20039;-79
2022/01/21 04:12:45;;;;;;;5.60;3.17;;;;;;;1.10;75.36;94748.59;5095658;28;20382;-79
2022/01/21 04:15:10;;;;;;;5.97;2.58;;;;;;;1.09;75.69;94744.41;5115083;28;20111;-79
2022/01/21 04:17:36;;;;;;;4.65;2.88;;;;;;;1.08;75.76;94763.19;5096771;28;20028;-79
2022/01/21 04:20:05;;;;;;;3.95;2.38;;;;;;;1.10;75.50;94769.91;5096393;28;20138;-79
2022/01/21 04:22:31;;;;;;;3.17;2.13;;;;;;;1.02;76.19;94771.16;5097092;28;20075;-78
2022/01/21 04:24:56;;;;;;;2.92;1.85;;;;;;;1.09;75.79;94768.25;5113698;28;20027;-79
2022/01/21 04:27:22;;;;;;;2.45;1.30;;;;;;;1.00;75.42;94765.28;5096651;28;20489;-79
2022/01/21 04:29:47;;;;;;;5.97;3.50;;;;;;;1.04;75.75;94785.53;5113255;28;20028;-79
2022/01/21 04:32:15;;;;;;;7.65;3.95;;;;;;;1.06;75.49;94777.81;5096456;28;20028;-79
2022/01/21 04:34:40;;;;;;;5.60;2.95;;;;;;;1.03;75.47;94780.47;5114672;28;20055;-79
2022/01/21 04:37:11;;;;;;;4.32;2.22;;;;;;;1.03;75.37;94791.56;5114637;28;20089;-79
2022/01/21 04:39:43;;;;;;;6.35;4.25;;;;;;;0.97;75.78;94796.94;5097008;28;20413;-79
2022/01/21 04:47:30;;;;;;;4.53;2.58;;;;;;;1.00;74.94;94812.16;5113723;28;20038;-79
2022/01/21 04:49:55;;;;;;;3.10;1.90;;;;;;;1.03;74.94;94817.16;5095656;28;20047;-79
2022/01/21 04:52:21;;;;;;;6.93;5.25;;;;;;;0.95;75.77;94816.66;5095780;28;20027;-79
2022/01/21 04:54:47;;;;;;;3.33;2.50;;;;;;;1.00;75.05;94821.56;5112891;28;20107;-79
2022/01/21 04:57:12;;;;;;;3.28;2.13;;;;;;;0.98;74.85;94828.50;5114190;28;20034;-79
2022/01/21 04:59:39;;;;;;;3.75;2.28;;;;;;;0.94;74.89;94829.50;5095927;28;20562;-79
2022/01/21 05:02:05;;;;;;;3.30;2.28;;;;;;;0.96;75.23;94830.28;5095610;28;20031;-79
2022/01/21 05:04:30;;;;;;;3.90;1.80;;;;;;;1.00;74.29;94832.63;5096153;28;20484;-79
2022/01/21 05:06:56;;;;;;;4.13;2.38;;;;;;;0.97;74.37;94842.16;5114265;27;20481;-78
2022/01/21 05:09:29;;;;;;;4.88;3.30;;;;;;;0.90;74.93;94844.19;5113187;28;20312;-79
2022/01/21 05:11:55;;;;;;;4.20;2.70;;;;;;;0.86;74.91;94846.06;5112442;28;20032;-79
2022/01/21 05:14:24;;;;;;;3.17;2.30;;;;;;;0.82;75.13;94848.81;5096006;28;20038;-78
2022/01/21 05:16:52;;;;;;;4.60;2.88;;;;;;;0.76;75.31;94847.34;5112604;28;20102;-79
2022/01/21 05:19:19;;;;;;;5.30;3.63;;;;;;;0.86;74.56;94856.28;5096104;28;20096;-78
2022/01/21 05:21:48;;;;;;;9.50;5.07;;;;;;;0.88;73.82;94862.13;5112647;28;20023;-78
2022/01/21 05:24:14;;;;;;;8.88;4.95;;;;;;;0.76;73.84;94849.09;5095206;28;20027;-79
2022/01/21 05:26:40;;;;;;;10.05;4.57;;;;;;;0.79;73.87;94870.22;5078622;28;20028;-79
2022/01/21 05:29:06;;;;;;;9.32;4.32;;;;;;;0.66;74.27;94853.75;5112292;28;20032;-78
2022/01/21 05:31:32;;;;;;;7.88;5.22;;;;;;;0.74;73.85;94869.59;5078260;28;20081;-78
2022/01/21 05:33:57;;;;;;;7.57;3.28;;;;;;;0.70;74.36;94874.91;5112078;28;20028;-78
2022/01/21 05:36:23;;;;;;;5.30;3.10;;;;;;;0.68;74.43;94882.66;5078250;28;20036;-78
2022/01/21 05:38:48;;;;;;;9.88;5.40;;;;;;;0.56;74.38;94871.22;5094910;28;20024;-78
2022/01/21 05:41:14;;;;;;;10.38;5.72;;;;;;;0.54;74.59;94887.53;5094707;28;20098;-78
2022/01/21 05:43:45;;;;;;;9.60;4.65;;;;;;;0.59;74.86;94900.94;5094484;27;20024;-78
2022/01/21 05:46:47;;;;;;;8.38;4.45;;;;;;;0.51;74.52;94901.28;5095910;28;20039;-78
2022/01/21 05:49:14;;;;;;;7.67;4.17;;;;;;;0.46;74.39;94917.69;5099810;28;20489;-78
2022/01/21 05:51:40;;;;;;;8.90;4.78;;;;;;;0.36;75.04;94901.91;5113017;28;20284;-78
2022/01/21 05:54:05;;;;;;;16.48;7.45;;;;;;;0.38;74.78;94918.84;5113444;28;20032;-78
2022/01/21 05:56:31;;;;;;;17.67;9.32;;;;;;;0.44;74.35;94926.25;5094533;28;20470;-79
2022/01/21 05:58:57;;;;;;;21.25;9.82;;;;;;;0.32;74.47;94910.59;5094560;28;20478;-77
2022/01/21 06:01:22;;;;;;;8.40;4.13;;;;;;;0.40;74.84;94932.38;5094828;28;20076;-78
2022/01/21 06:03:49;;;;;;;16.58;8.60;;;;;;;0.34;74.84;94942.88;5111601;28;20085;-78
2022/01/21 06:06:14;;;;;;;10.55;5.47;;;;;;;0.31;74.73;94937.06;5094600;28;20028;-78
2022/01/21 06:08:39;;;;;;;9.75;4.50;;;;;;;0.35;74.22;94944.50;5094788;28;20041;-78
2022/01/21 06:11:05;;;;;;;14.90;6.60;;;;;;;0.30;74.31;94956.66;5111957;28;20034;-79
2022/01/21 06:13:31;;;;;;;13.32;6.05;;;;;;;0.17;74.11;94940.16;5111733;28;20038;-79
2022/01/21 06:15:58;;;;;;;14.13;8.20;;;;;;;0.27;73.67;94964.44;5111264;28;20103;-79
2022/01/21 06:18:24;;;;;;;8.95;5.38;;;;;;;-0.17;74.08;94958.53;5112917;28;20062;-79
2022/01/21 06:20:49;;;;;;;16.83;6.03;;;;;;;-0.51;74.31;94975.13;5094538;28;20039;-79
2022/01/21 06:23:15;;;;;;;49.53;17.08;;;;;;;-0.62;75.29;94972.13;5111465;28;20191;-79
2022/01/21 06:25:41;;;;;;;30.88;13.25;;;;;;;-0.40;75.44;94984.94;5084189;28;20031;-79
2022/01/21 06:28:06;;;;;;;16.85;6.82;;;;;;;-0.48;75.27;94993.69;5094495;28;20027;-79
2022/01/21 06:30:32;;;;;;;15.80;9.52;;;;;;;-0.55;75.81;94987.19;5111288;28;20546;-79
2022/01/21 06:32:57;;;;;;;9.60;4.20;;;;;;;-0.63;75.72;94994.28;5111653;28;20400;-79
2022/01/21 06:35:23;;;;;;;8.23;4.60;;;;;;;-0.71;76.55;95009.03;5092984;28;20168;-79
2022/01/21 06:37:48;;;;;;;14.82;8.65;;;;;;;-0.68;76.44;95008.91;5110747;28;20031;-80
2022/01/21 06:40:15;;;;;;;10.48;6.70;;;;;;;-0.67;75.51;95002.91;5093960;28;20032;-79
2022/01/21 06:42:41;;;;;;;8.48;5.20;;;;;;;-0.70;75.62;95015.78;5111094;28;20114;-79
2022/01/21 06:45:07;;;;;;;10.80;6.30;;;;;;;-0.62;75.69;95028.28;5093740;28;20126;-79
2022/01/21 06:47:32;;;;;;;27.50;16.17;;;;;;;-0.71;74.71;95014.13;5093885;28;20036;-79
2022/01/21 06:49:59;;;;;;;10.95;6.25;;;;;;;-0.70;74.34;95018.34;5110861;28;20485;-79
2022/01/21 06:52:26;;;;;;;10.02;5.53;;;;;;;-0.67;74.21;95036.09;5094230;28;20024;-79
2022/01/21 06:54:51;;;;;;;15.48;8.40;;;;;;;-0.68;73.83;95024.22;5110650;28;20031;-79
2022/01/21 06:57:17;;;;;;;21.40;13.30;;;;;;;-0.61;74.18;95051.19;5110959;28;20412;-80
2022/01/21 06:59:42;;;;;;;21.75;13.65;;;;;;;-0.63;73.87;95050.41;5110877;28;20401;-79
2022/01/21 07:02:08;;;;;;;17.17;12.00;;;;;;;-0.71;74.28;95053.22;5093861;28;20515;-79
2022/01/21 07:04:33;;;;;;;13.75;8.32;;;;;;;-0.66;73.54;95058.19;5093708;28;20428;-79
2022/01/21 07:07:00;;;;;;;16.75;9.00;;;;;;;-0.63;73.54;95052.97;5093930;28;20141;-79
2022/01/21 07:09:26;;;;;;;23.73;14.50;;;;;;;-0.61;74.21;95063.09;5110542;28;20031;-79
2022/01/21 07:11:52;;;;;;;14.05;7.90;;;;;;;-0.83;74.40;95053.66;5093788;28;20036;-78
2022/01/21 07:14:17;;;;;;;21.52;12.15;;;;;;;-0.77;74.07;95075.59;5093427;28;20470;-79
2022/01/21 07:16:43;;;;;;;25.27;16.83;;;;;;;-0.77;73.40;95056.00;5110840;28;20028;-80
2022/01/21 07:19:08;;;;;;;18.92;10.65;;;;;;;-0.54;72.53;95067.94;5110608;28;20043;-80
2022/01/21 07:21:34;;;;;;;22.02;13.40;;;;;;;-0.72;73.12;95063.50;5110724;28;20031;-80
2022/01/21 07:23:59;;;;;;;22.00;13.43;;;;;;;-0.69;73.14;95060.84;5110431;28;20085;-80
2022/01/21 07:26:26;;;;;;;14.30;10.27;;;;;;;-0.75;73.50;95068.72;5110571;28;20035;-79
2022/01/21 07:28:51;;;;;;;17.45;8.48;;;;;;;-0.58;72.95;95089.38;5076858;28;20524;-79
2022/01/21 07:31:17;;;;;;;6.75;4.97;;;;;;;-0.72;73.21;95083.91;5093313;28;20061;-79
2022/01/21 07:33:42;;;;;;;6.25;4.13;;;;;;;-0.77;73.34;95093.44;5110577;28;20470;-80
2022/01/21 07:36:07;;;;;;;8.70;4.95;;;;;;;-0.92;73.68;95082.03;5110488;28;20024;-80
2022/01/21 07:38:33;;;;;;;8.05;5.43;;;;;;;-0.92;73.25;95077.78;5093625;28;20031;-79
2022/01/21 07:40:58;;;;;;;11.90;7.50;;;;;;;-0.86;73.13;95098.84;5093295;28;20023;-80
2022/01/21 07:43:24;;;;;;;6.65;4.22;;;;;;;-0.93;73.58;95100.78;5111818;28;20059;-79
2022/01/21 07:45:49;;;;;;;4.85;3.33;;;;;;;-1.06;72.80;95102.88;5110682;28;20437;-79
2022/01/21 07:48:15;;;;;;;4.03;2.58;;;;;;;-1.21;73.39;95100.84;5080093;28;20028;-80
2022/01/21 07:50:40;;;;;;;5.43;3.35;;;;;;;-1.17;73.50;95093.06;5113910;28;20136;-80
2022/01/21 07:53:06;;;;;;;4.03;3.00;;;;;;;-1.06;73.25;95094.41;5097307;28;20030;-80
2022/01/21 07:55:31;;;;;;;9.48;6.97;;;;;;;-0.85;73.10;95097.97;5114247;28;20034;-80
2022/01/21 07:57:57;;;;;;;9.77;8.57;;;;;;;-0.85;73.64;95106.44;5097156;28;20028;-79
2022/01/21 08:00:22;;;;;;;9.10;6.95;;;;;;;-0.77;73.86;95117.22;5113758;28;20481;-79
2022/01/21 08:02:48;;;;;;;20.50;16.00;;;;;;;-0.68;73.97;95104.16;5097123;28;20096;-80
2022/01/21 08:05:13;;;;;;;18.30;12.13;;;;;;;-0.58;73.53;95112.34;5097179;28;20027;-80
2022/01/21 08:07:39;;;;;;;12.43;7.75;;;;;;;-0.56;73.04;95125.03;5113999;28;20405;-80
2022/01/21 08:10:05;;;;;;;8.70;5.43;;;;;;;-0.62;72.96;95115.88;5096786;28;20031;-80
2022/01/21 08:12:30;;;;;;;8.50;5.43;;;;;;;-0.52;72.07;95137.66;5096967;28;20061;-80
2022/01/21 08:14:55;;;;;;;6.78;4.25;;;;;;;-0.46;72.14;95129.78;5096828;28;20024;-80
2022/01/21 08:17:21;;;;;;;6.05;3.72;;;;;;;-0.46;71.87;95134.88;5096514;28;20039;-81
2022/01/21 08:19:47;;;;;;;6.32;4.40;;;;;;;-0.45;72.53;95143.34;5113809;28;20031;-75
2022/01/21 08:22:12;;;;;;;7.75;5.93;;;;;;;-0.50;72.95;95135.88;5079742;28;20020;-79
2022/01/21 08:24:38;;;;;;;6.15;4.15;;;;;;;-0.43;72.21;95153.53;5096631;28;20433;-79
2022/01/21 08:27:05;;;;;;;9.35;6.45;;;;;;;-0.41;72.33;95146.66;5096079;28;20027;-76
2022/01/21 08:29:32;;;;;;;7.07;5.05;;;;;;;-0.39;72.41;95147.41;5113193;28;20036;-75
2022/01/21 08:31:57;;;;;;;5.38;4.45;;;;;;;-0.44;72.45;95139.94;5095939;28;20421;-74
2022/01/21 08:34:23;;;;;;;6.43;3.25;;;;;;;-0.31;71.44;95142.88;5113074;28;20054;-74
2022/01/21 08:36:49;;;;;;;5.97;4.22;;;;;;;-0.29;70.91;95151.31;5095807;28;20043;-74
2022/01/21 08:39:15;;;;;;;6.93;5.78;;;;;;;-0.26;71.14;95167.38;5113033;28;20028;-73
2022/01/21 08:41:40;;;;;;;6.43;4.85;;;;;;;-0.26;70.84;95157.16;5096123;28;20038;-73
2022/01/21 08:44:06;;;;;;;7.43;4.57;;;;;;;-0.19;69.83;95164.63;5096119;28;20020;-75
2022/01/21 08:46:31;;;;;;;6.72;4.32;;;;;;;-0.21;70.49;95159.56;5095825;28;20042;-75
2022/01/21 08:48:57;;;;;;;7.90;3.60;;;;;;;-0.24;70.21;95142.63;5095834;28;20019;-75
2022/01/21 08:51:27;;;;;;;4.78;3.50;;;;;;;-0.25;70.04;95135.03;5114125;28;20031;-75
2022/01/21 08:53:53;;;;;;;6.47;3.35;;;;;;;-0.14;68.66;95134.63;5112864;28;20054;-75
2022/01/21 08:56:18;;;;;;;59.28;38.95;;;;;;;-0.14;67.38;95139.72;5095603;28;20493;-75
2022/01/21 08:58:44;;;;;;;23.92;16.75;;;;;;;-0.08;67.19;95153.13;5111873;28;20038;-75
2022/01/21 09:01:10;;;;;;;10.52;5.60;;;;;;;-0.24;69.53;95146.91;5112620;28;20092;-74
2022/01/21 09:03:38;;;;;;;12.38;8.88;;;;;;;-0.04;68.45;95159.78;5114144;28;20282;-74
2022/01/21 09:06:04;;;;;;;7.32;5.00;;;;;;;-0.07;67.13;95161.63;5112478;28;20034;-74
2022/01/21 09:08:30;;;;;;;6.25;3.88;;;;;;;-0.15;67.27;95154.22;5112606;28;20035;-75
2022/01/21 09:10:57;;;;;;;14.02;9.18;;;;;;;-0.09;66.27;95148.06;5095460;28;20480;-75
2022/01/21 09:13:23;;;;;;;9.77;7.55;;;;;;;-0.06;65.99;95155.59;5112465;28;20085;-74
2022/01/21 09:15:49;;;;;;;5.45;4.05;;;;;;;-0.08;66.23;95147.19;5095326;28;20031;-74
2022/01/21 09:18:20;;;;;;;4.07;2.63;;;;;;;-0.08;66.49;95139.53;5112420;28;20059;-74
2022/01/21 09:20:46;;;;;;;3.95;2.38;;;;;;;-0.13;65.92;95129.47;5112436;28;20024;-75
2022/01/21 09:23:11;;;;;;;4.15;1.90;;;;;;;-0.10;66.04;95121.69;5095422;28;20039;-75
2022/01/21 09:25:37;;;;;;;4.07;2.58;;;;;;;-0.13;66.82;95124.38;5112183;28;20040;-75
2022/01/21 09:28:03;;;;;;;2.85;1.90;;;;;;;-0.14;66.90;95114.19;5095741;28;20031;-75
2022/01/21 09:30:28;;;;;;;3.10;1.70;;;;;;;-0.09;65.28;95097.81;5112249;28;20035;-74
2022/01/21 09:32:53;;;;;;;3.72;1.90;;;;;;;-0.06;66.38;95100.25;5095188;28;20031;-75
2022/01/21 09:35:19;;;;;;;3.42;1.65;;;;;;;-0.04;64.97;95093.38;5111971;28;20474;-75
2022/01/21 09:37:44;;;;;;;3.03;1.17;;;;;;;0.07;64.05;95074.25;5112142;28;20036;-75
2022/01/21 09:40:10;;;;;;;3.30;1.30;;;;;;;0.02;64.60;95073.59;5112159;28;20031;-74
2022/01/21 09:42:36;;;;;;;2.17;1.15;;;;;;;0.03;64.50;95059.94;5094788;28;20485;-74
2022/01/21 09:45:07;;;;;;;2.63;0.90;;;;;;;0.07;63.71;95069.16;5112880;28;20042;-75
2022/01/21 09:47:33;;;;;;;2.42;1.33;;;;;;;0.10;64.95;95066.47;5111871;28;20034;-75
2022/01/21 09:49:58;;;;;;;2.08;1.10;;;;;;;0.16;65.62;95066.25;5094935;28;20051;-75
2022/01/21 09:52:24;;;;;;;2.45;1.20;;;;;;;0.03;63.46;95071.00;5095402;28;20023;-75
2022/01/21 09:54:50;;;;;;;1.65;1.10;;;;;;;0.25;61.88;95073.53;5094787;28;20032;-75
2022/01/21 09:57:25;;;;;;;4.22;2.72;;;;;;;0.27;64.35;95069.22;5112013;28;20020;-75
2022/01/21 09:59:51;;;;;;;4.03;2.33;;;;;;;0.21;66.86;95062.63;5111888;28;20043;-75
2022/01/21 10:02:18;;;;;;;3.80;2.60;;;;;;;0.33;65.15;95066.41;5111255;28;20462;-74
2022/01/21 10:04:47;;;;;;;11.60;7.93;;;;;;;0.42;63.48;95065.25;5111089;28;20508;-74
2022/01/21 10:07:17;;;;;;;6.18;4.60;;;;;;;0.44;63.03;95071.13;5111262;28;20520;-75
2022/01/21 10:09:43;;;;;;;5.80;3.97;;;;;;;0.48;63.75;95059.06;5094291;28;20067;-74
2022/01/21 10:12:09;;;;;;;5.63;3.90;;;;;;;0.52;65.19;95055.47;5094713;28;20054;-75
2022/01/21 10:14:35;;;;;;;13.68;9.73;;;;;;;0.50;62.65;95036.81;5094721;28;20027;-75
2022/01/21 10:17:00;;;;;;;12.40;8.05;;;;;;;0.72;60.41;95049.56;5094185;28;20417;-74
2022/01/21 10:19:30;;;;;;;12.38;4.82;;;;;;;0.67;60.14;95044.66;5094622;28;20111;-74
2022/01/21 10:22:08;;;;;;;12.15;5.72;;;;;;;0.80;58.87;95047.53;5094973;28;20040;-75
2022/01/21 10:24:35;;;;;;;8.75;5.05;;;;;;;0.81;58.50;95039.81;5094830;28;20084;-75
2022/01/21 10:27:01;;;;;;;9.57;4.95;;;;;;;0.84;58.97;95049.91;5094235;28;20037;-74
2022/01/21 10:29:40;;;;;;;12.07;6.68;;;;;;;0.75;61.42;95046.88;5111364;28;20481;-74
2022/01/21 10:32:07;;;;;;;8.48;5.30;;;;;;;0.86;62.67;95039.59;5094318;28;20020;-74
2022/01/21 10:34:40;;;;;;;8.75;5.00;;;;;;;0.87;62.60;95034.44;5094636;28;20028;-74
2022/01/21 10:37:22;;;;;;;7.82;5.57;;;;;;;0.92;63.18;95044.47;5094432;28;20036;-74
2022/01/21 10:40:07;;;;;;;13.85;7.97;;;;;;;0.96;63.45;95040.06;5093977;28;20099;-75
2022/01/21 10:42:33;;;;;;;15.15;7.80;;;;;;;0.85;64.61;95043.06;5094248;28;20487;-75
2022/01/21 10:44:59;;;;;;;9.75;6.43;;;;;;;0.89;63.81;95045.44;5093746;28;20035;-74
2022/01/21 10:47:28;;;;;;;9.25;5.40;;;;;;;0.84;62.37;95026.88;5077193;28;20028;-74
2022/01/21 10:50:13;;;;;;;10.98;4.60;;;;;;;0.91;61.53;95041.97;5094459;28;20130;-75
2022/01/21 10:52:51;;;;;;;11.52;5.78;;;;;;;0.89;62.34;95024.97;5112292;28;20035;-75
2022/01/21 10:55:32;;;;;;;6.57;5.07;;;;;;;0.93;61.91;95035.91;5077818;28;20063;-74
2022/01/21 10:58:08;;;;;;;11.80;7.75;;;;;;;0.97;63.29;95031.47;5111043;28;20447;-74
2022/01/21 11:00:35;;;;;;;18.08;11.80;;;;;;;0.96;62.21;95017.03;5110811;28;20040;-74
2022/01/21 11:03:13;;;;;;;10.35;6.07;;;;;;;1.01;60.67;95020.25;5093544;28;20096;-74
2022/01/21 11:05:41;;;;;;;7.50;4.53;;;;;;;0.94;58.81;95003.47;5110706;28;20043;-74
2022/01/21 11:08:09;;;;;;;9.65;5.47;;;;;;;0.94;60.41;94995.78;5093929;28;20012;-74
2022/01/21 11:10:35;;;;;;;11.50;6.55;;;;;;;1.08;60.18;95008.81;5111602;28;20095;-74
2022/01/21 11:13:21;;;;;;;42.88;23.38;;;;;;;1.10;60.38;95004.47;5093638;28;20027;-74
2022/01/21 11:16:12;;;;;;;43.10;27.23;;;;;;;1.05;60.13;94988.50;5107277;28;20104;-75
2022/01/21 11:18:48;;;;;;;48.05;27.75;;;;;;;1.03;60.26;94987.72;5110539;28;20080;-74
2022/01/21 11:21:14;;;;;;;16.92;11.13;;;;;;;1.13;59.78;94983.06;5110386;28;20487;-75
2022/01/21 11:23:39;;;;;;;14.63;8.90;;;;;;;1.14;59.09;94982.97;5097538;28;20028;-74
2022/01/21 11:26:09;;;;;;;9.77;6.25;;;;;;;1.10;60.05;94994.25;5097823;28;20042;-74
2022/01/21 11:28:39;;;;;;;9.00;7.00;;;;;;;0.95;57.08;94982.09;5098304;28;20508;-74
2022/01/21 11:31:05;;;;;;;6.18;3.33;;;;;;;1.00;57.31;95000.66;5114382;28;20035;-74
2022/01/21 11:33:30;;;;;;;8.52;5.38;;;;;;;0.94;58.82;94993.25;5114252;28;20071;-75
2022/01/21 11:35:56;;;;;;;9.10;6.43;;;;;;;0.94;58.30;94994.06;5114098;28;20558;-74
2022/01/21 11:38:23;;;;;;;11.15;7.28;;;;;;;0.98;57.87;94992.22;5114354;28;20028;-75
2022/01/21 11:40:49;;;;;;;8.73;7.13;;;;;;;0.97;57.73;95011.00;5097096;28;20027;-74
2022/01/21 11:43:15;;;;;;;12.27;6.15;;;;;;;0.89;58.56;95009.63;5114258;28;20032;-75
2022/01/21 11:50:44;;;;;;;7.75;3.42;;;;;;;0.65;57.99;95014.03;5096863;28;20051;-75
2022/01/21 11:53:10;;;;;;;6.10;3.97;;;;;;;0.49;56.31;95018.09;5113697;28;20088;-74
2022/01/21 11:55:37;;;;;;;9.27;5.75;;;;;;;0.50;59.22;95016.34;5096784;28;20040;-74
2022/01/21 11:58:17;;;;;;;7.82;4.05;;;;;;;0.46;57.17;95010.53;5113780;28;20409;-74
2022/01/21 12:00:48;;;;;;;9.77;6.78;;;;;;;0.49;58.40;95007.84;5113708;28;20081;-74
2022/01/21 12:03:21;;;;;;;14.35;10.65;;;;;;;0.44;57.53;95005.47;5097452;28;20108;-74
2022/01/21 12:05:46;;;;;;;11.10;6.18;;;;;;;0.47;57.09;95006.25;5096996;28;20039;-74
2022/01/21 12:08:11;;;;;;;17.08;11.40;;;;;;;0.55;57.11;95010.16;5096436;28;20081;-75
2022/01/21 12:10:42;;;;;;;23.55;13.02;;;;;;;0.62;58.16;94995.41;5113399;28;20540;-75
2022/01/21 12:13:10;;;;;;;15.80;10.38;;;;;;;0.56;57.53;95006.72;5096998;28;20032;-75
2022/01/21 12:15:45;;;;;;;25.67;16.58;;;;;;;0.54;60.02;94997.47;5114455;27;20103;-74
2022/01/21 12:20:49;;;;;;;23.55;18.08;;;;;;;0.62;59.36;95006.47;5113544;28;20059;-73
2022/01/21 12:23:19;;;;;;;21.75;15.23;;;;;;;0.55;59.46;94999.09;5079202;28;20046;-74
2022/01/21 12:26:15;;;;;;;23.40;16.40;;;;;;;0.59;58.99;95005.78;5092853;28;20359;-74
2022/01/21 12:29:01;;;;;;;16.90;10.77;;;;;;;0.62;57.25;95005.66;5109855;28;20042;-74
2022/01/21 12:31:52;;;;;;;11.88;7.28;;;;;;;0.48;58.29;95005.38;5109687;28;20043;-74